Orbital elements of CZ-4C R/B
| Launched | 14 December 2009 |
| Flight ended | – |
| Launch site | Taiyuan Space Center, PRC |
| Owner | People's Republic of China |
| NORAD ID | 36123 |
| Date fetched |
Epoch osculation |
Inc. [°] |
Ecc. | RA asc node [hr] |
Arg Peri. [°] |
Mean anom [°] |
Mean motion [rev/day] |
Abs. mag |
| Date fetched |
Epoch osculation |
Inc. [°] |
Ecc. | RA asc node [hr] |
Arg Peri. [°] |
Mean anom [°] |
Mean motion [rev/day] |
Abs. mag |
| 2026 May 10 17:57 | 2026 May 10 12:10:50 | 100.5037 | 0.01572 | 10.5610 | 35.7605 | 138.0583 | 13.46237 | 6.243 |
| 2026 May 09 17:57 | 2026 May 05 12:37:47 | 100.5043 | 0.01573 | 10.2132 | 47.6646 | 138.0583 | 13.46237 | 6.243 |
| 2026 May 08 17:57 | 2026 May 05 12:37:47 | 100.5043 | 0.01573 | 10.2132 | 47.6646 | 138.0583 | 13.46237 | 6.243 |
| 2026 May 07 17:58 | 2026 May 05 12:37:47 | 100.5043 | 0.01573 | 10.2132 | 47.6646 | 138.0583 | 13.46237 | 6.243 |
| 2026 May 06 17:57 | 2026 May 05 12:37:47 | 100.5043 | 0.01573 | 10.2132 | 47.6646 | 138.0583 | 13.46237 | 6.243 |
| 2026 May 05 17:57 | 2026 May 05 12:37:47 | 100.5043 | 0.01573 | 10.2132 | 47.6646 | 138.0583 | 13.46237 | 6.243 |
| 2026 May 04 17:57 | 2026 Apr 30 14:39:37 | 100.5049 | 0.01574 | 9.8700 | 59.4139 | 138.0583 | 13.46237 | 6.243 |
| 2026 May 03 17:57 | 2026 Apr 30 14:39:37 | 100.5049 | 0.01574 | 9.8700 | 59.4139 | 138.0583 | 13.46237 | 6.243 |
| 2026 May 02 17:57 | 2026 Apr 30 14:39:37 | 100.5049 | 0.01574 | 9.8700 | 59.4139 | 138.0583 | 13.46237 | 6.243 |
| 2026 May 01 17:56 | 2026 Apr 30 14:39:37 | 100.5049 | 0.01574 | 9.8700 | 59.4139 | 138.0583 | 13.46237 | 6.243 |
| 2026 Apr 30 17:56 | 2026 Apr 30 14:39:37 | 100.5049 | 0.01574 | 9.8700 | 59.4139 | 138.0583 | 13.46237 | 6.243 |
| 2026 Apr 29 17:57 | 2026 Apr 24 12:27:55 | 100.5061 | 0.01575 | 9.4447 | 73.9669 | 138.0583 | 13.46237 | 6.243 |
| 2026 Apr 28 17:56 | 2026 Apr 24 12:27:55 | 100.5061 | 0.01575 | 9.4447 | 73.9669 | 138.0583 | 13.46237 | 6.243 |
| 2026 Apr 27 17:58 | 2026 Apr 24 12:27:55 | 100.5061 | 0.01575 | 9.4447 | 73.9669 | 138.0583 | 13.46237 | 6.243 |
| 2026 Apr 26 17:58 | 2026 Apr 24 12:27:55 | 100.5061 | 0.01575 | 9.4447 | 73.9669 | 138.0583 | 13.46237 | 6.243 |
| 2026 Apr 25 17:58 | 2026 Apr 24 12:27:55 | 100.5061 | 0.01575 | 9.4447 | 73.9669 | 138.0583 | 13.46237 | 6.243 |
| 2026 Apr 24 17:59 | 2026 Apr 24 12:27:55 | 100.5061 | 0.01575 | 9.4447 | 73.9669 | 138.0583 | 13.46237 | 6.243 |
| 2026 Apr 23 17:57 | 2026 Apr 19 13:05:23 | 100.5068 | 0.01575 | 9.0974 | 85.8382 | 138.0583 | 13.46237 | 6.243 |
| 2026 Apr 22 17:57 | 2026 Apr 19 13:05:23 | 100.5068 | 0.01575 | 9.0974 | 85.8382 | 138.0583 | 13.46237 | 6.243 |
| 2026 Apr 21 17:57 | 2026 Apr 19 13:05:23 | 100.5068 | 0.01575 | 9.0974 | 85.8382 | 138.0583 | 13.46237 | 6.243 |
| 2026 Apr 20 17:57 | 2026 Apr 19 13:05:23 | 100.5068 | 0.01575 | 9.0974 | 85.8382 | 138.0583 | 13.46237 | 6.243 |
| 2026 Apr 19 17:58 | 2026 Apr 19 13:05:23 | 100.5068 | 0.01575 | 9.0974 | 85.8382 | 138.0583 | 13.46237 | 6.243 |
| 2026 Apr 18 17:56 | 2026 Apr 12 23:40:08 | 100.5077 | 0.01575 | 8.6394 | 101.4996 | 138.0583 | 13.46237 | 6.243 |
| 2026 Apr 16 17:57 | 2026 Apr 12 23:40:08 | 100.5077 | 0.01575 | 8.6394 | 101.4996 | 138.0583 | 13.46237 | 6.243 |
| 2026 Apr 14 17:57 | 2026 Apr 12 23:40:08 | 100.5077 | 0.01575 | 8.6394 | 101.4996 | 138.0583 | 13.46237 | 6.243 |
| 2026 Apr 13 17:57 | 2026 Apr 12 23:40:08 | 100.5077 | 0.01575 | 8.6394 | 101.4996 | 138.0583 | 13.46237 | 6.243 |